Aitkin, MN

10:52 AM CDT on May 29, 2015 (GMT -0500)
Pine River Regional | | Change Station
CLOSE
Current Station
Airport
Location: Pine River,
Elevation: 1296 ft
Nearby Weather Stations
Active Advisory: Flood Warning

Elev 1296 ft 46.72 °N, 94.38 °W | Updated 19 minutes ago

Mostly Cloudy
Mostly Cloudy
57 °F
Feels Like 57 °F
N
15
Wind Variable Wind from North

Today
High -- | Low -- °F
--% Chance of Precip.
Yesterday
High -- | Low -- °F
Precip. -- in
5:27 AM 8:57 PM
Waxing Gibbous, 84% visible
Pressure 29.98 in
Visibility 10.0 miles
Clouds Scattered Clouds 1100 ft
Mostly Cloudy 1700 ft
Overcast 2700 ft
Dew Point 55 °F
Humidity 94%
Rainfall 0.64 in
Snow Depth Not available.
UV 2 out of 12
Pollen 9.10 out of 12
Air Quality Not available.
Flu Activity Sporadic
METAR KPWC 291533Z AUTO 35013KT 10SM -DZ SCT011 BKN017 OVC027 14/13 A2998 RMK AO2

More Conditions Fewer Conditions

Pressure 29.98 in
Visibility 10.0 miles
Clouds Scattered Clouds 1100 ft
Mostly Cloudy 1700 ft
Overcast 2700 ft
Dew Point 55 °F
Humidity 94%
Rainfall 0.64 in
Snow Depth Not available.
UV 2 out of 12
Pollen 9.10 out of 12
Air Quality Not available.
Flu Activity Sporadic
METAR KPWC 291533Z AUTO 35013KT 10SM -DZ SCT011 BKN017 OVC027 14/13 A2998 RMK AO2

More Conditions Fewer Conditions

10-Day Weather Forecast

Almanac

Astronomy

May. 29, 2015 Rise Set
Actual Time
Civil Twilight
Nautical Twilight
Astronomical Twilight
Moon
Length of Visible Light
Length of Day
Tomorrow will be .
, % of the Moon is Illuminated

Today's Extremes

State Highs State Lows

Community

WunderPhotos

Upload Photos

1,825,294 photos uploaded!

WunderBlogs® & News

Nearby

Air Quality

  Air Quality AQ Index Pollutant
Not available.

Snow Depth

Station Depth Elevation

Earthquake Activity

City Distance Mag. Time & Date
Minimum magnitude displayed is 2.5.

Coastal Water Temperatures

Place Temperature

Stations

Nearby Weather Stations

Station Location Temp. Windchill Dew Point Humidity Wind Precip. Elev Updated Type
                   
Flood Warning
Statement as of 9:46 AM CDT on May 29, 2015

The Flood Warning continues for
the Mississippi River at Aitkin.
* At 8:30 am Friday the stage was 12.1 feet.
* Flood stage is 12.0 feet.
* Minor flooding is occurring and minor flooding is forecast.
* At 12.0 feet... minor flooding of farmland occurs in the Cedarbrook
community..
this crest compares to a previous crest of 12.3 feet on Apr 17 2011.


Lat... Lon 4650 9370 4630 9420 4644 9420 4655 9415
      4665 9370